createdAt,value
2023-03-01T00:01:45.435Z,-6.40
2023-03-01T00:04:14.016Z,-6.40
2023-03-01T00:06:43.965Z,-6.40
2023-03-01T00:09:12.342Z,-6.40
2023-03-01T00:11:41.249Z,-6.40
2023-03-01T00:14:09.838Z,-6.50
2023-03-01T00:16:41.885Z,-6.50
2023-03-01T00:19:14.353Z,-6.50
2023-03-01T00:21:43.695Z,-6.50
2023-03-01T00:24:13.149Z,-6.60
2023-03-01T00:26:41.785Z,-6.60
2023-03-01T00:29:10.137Z,-6.70
2023-03-01T00:31:39.908Z,-6.70
2023-03-01T00:34:08.929Z,-6.60
2023-03-01T00:36:39.312Z,-6.70
2023-03-01T00:39:13.358Z,-6.70
2023-03-01T00:41:42.434Z,-6.70
2023-03-01T00:44:11.900Z,-6.70
2023-03-01T00:46:41.573Z,-6.70
2023-03-01T00:49:10.174Z,-6.70
2023-03-01T00:51:40.292Z,-6.70
2023-03-01T00:54:10.571Z,-6.70
2023-03-01T00:56:38.983Z,-6.70
2023-03-01T00:59:07.410Z,-6.70
2023-03-01T01:01:36.140Z,-6.70
2023-03-01T01:04:11.281Z,-6.80
2023-03-01T01:06:43.422Z,-6.80
2023-03-01T01:09:18.079Z,-6.80
2023-03-01T01:11:47.527Z,-6.90
2023-03-01T01:14:16.330Z,-6.90
2023-03-01T01:16:45.488Z,-6.90
2023-03-01T01:19:15.821Z,-7.00
2023-03-01T01:21:45.788Z,-6.90
2023-03-01T01:24:14.445Z,-7.00
2023-03-01T01:26:43.682Z,-7.00
2023-03-01T01:29:12.696Z,-7.10
2023-03-01T01:31:42.962Z,-7.10
2023-03-01T01:34:18.146Z,-7.10
2023-03-01T01:36:49.650Z,-7.20
2023-03-01T01:39:18.542Z,-7.20
2023-03-01T01:41:47.214Z,-7.20
2023-03-01T01:44:19.302Z,-7.20
2023-03-01T01:46:51.331Z,-7.30
2023-03-01T01:49:30.428Z,-7.30
2023-03-01T01:52:07.000Z,-7.30
2023-03-01T01:54:44.469Z,-7.30
2023-03-01T01:57:16.828Z,-7.30
2023-03-01T01:59:49.546Z,-7.30
2023-03-01T02:02:18.525Z,-7.40
2023-03-01T02:04:50.231Z,-7.50
2023-03-01T02:07:21.442Z,-7.50
2023-03-01T02:09:52.121Z,-7.60
2023-03-01T02:12:23.473Z,-7.60
2023-03-01T02:14:52.247Z,-7.60
2023-03-01T02:17:21.317Z,-7.70
2023-03-01T02:20:02.775Z,-7.70
2023-03-01T02:22:34.252Z,-7.70
2023-03-01T02:25:14.653Z,-7.70
2023-03-01T02:27:53.066Z,-7.80
2023-03-01T02:30:24.608Z,-7.80
2023-03-01T02:32:55.709Z,-7.80
2023-03-01T02:35:25.135Z,-7.70
2023-03-01T02:37:53.385Z,-7.70
2023-03-01T02:40:22.712Z,-7.80
2023-03-01T02:42:52.880Z,-7.80
2023-03-01T02:45:22.842Z,-7.90
2023-03-01T02:47:51.721Z,-7.80
2023-03-01T02:50:44.041Z,-7.80
2023-03-01T02:53:18.150Z,-7.80
2023-03-01T02:55:46.924Z,-7.80
2023-03-01T02:58:15.642Z,-7.80
2023-03-01T03:00:47.716Z,-7.70
2023-03-01T03:03:18.773Z,-7.80
2023-03-01T03:05:47.369Z,-7.80
2023-03-01T03:08:17.278Z,-7.90
2023-03-01T03:10:45.766Z,-7.90
2023-03-01T03:13:15.746Z,-7.90
2023-03-01T03:15:45.846Z,-7.90
2023-03-01T03:18:16.596Z,-7.90
2023-03-01T03:20:46.178Z,-7.90
2023-03-01T03:23:15.907Z,-8.00
2023-03-01T03:25:44.588Z,-8.00
2023-03-01T03:28:13.085Z,-8.10
2023-03-01T03:30:43.304Z,-8.10
2023-03-01T03:33:14.919Z,-8.10
2023-03-01T03:35:45.059Z,-8.10
2023-03-01T03:38:17.797Z,-8.20
2023-03-01T03:40:47.999Z,-8.20
2023-03-01T03:43:18.878Z,-8.20
2023-03-01T03:45:47.677Z,-8.30
2023-03-01T03:48:18.810Z,-8.30
2023-03-01T03:50:51.074Z,-8.30
2023-03-01T03:53:20.374Z,-8.30
2023-03-01T03:55:50.304Z,-8.20
2023-03-01T03:58:21.032Z,-8.20
2023-03-01T04:00:52.381Z,-8.20
2023-03-01T04:03:22.990Z,-8.30
2023-03-01T04:05:53.456Z,-8.30
2023-03-01T04:08:23.995Z,-8.30
2023-03-01T04:10:54.364Z,-8.30
2023-03-01T04:13:26.183Z,-8.40
2023-03-01T04:15:56.052Z,-8.50
2023-03-01T04:18:26.217Z,-8.50
2023-03-01T04:20:56.624Z,-8.50
2023-03-01T04:23:25.959Z,-8.50
2023-03-01T04:25:58.112Z,-8.50
2023-03-01T04:28:30.232Z,-8.60
2023-03-01T04:31:01.443Z,-8.60
2023-03-01T04:33:31.287Z,-8.60
2023-03-01T04:35:59.782Z,-8.60
2023-03-01T04:38:28.352Z,-8.60
2023-03-01T04:40:56.971Z,-8.60
2023-03-01T04:43:25.817Z,-8.60
2023-03-01T04:45:54.458Z,-8.60
2023-03-01T04:48:23.256Z,-8.60
2023-03-01T04:50:52.978Z,-8.60
2023-03-01T04:53:21.522Z,-8.60
2023-03-01T04:55:49.953Z,-8.60
2023-03-01T04:58:18.757Z,-8.60
2023-03-01T05:00:47.326Z,-8.70
2023-03-01T05:03:18.987Z,-8.70
2023-03-01T05:05:49.267Z,-8.70
2023-03-01T05:08:19.594Z,-8.70
2023-03-01T05:10:52.703Z,-8.70
2023-03-01T05:13:22.820Z,-8.80
2023-03-01T05:15:56.744Z,-8.80
2023-03-01T05:18:27.020Z,-8.80
2023-03-01T05:20:57.207Z,-8.80
2023-03-01T05:23:27.275Z,-8.70
2023-03-01T05:25:56.063Z,-8.70
2023-03-01T05:28:24.468Z,-8.70
